Time;durP1;ratioP1;P1;durP2;ratioP2;P2;SDS_P1;SDS_P2;PMS_P1;PMS_P2;Temp;Humidity;BMP_temperature;BMP_pressure;BME280_temperature;BME280_humidity;BME280_pressure;Samples;Min_cycle;Max_cycle;Signal;HPM_P1;HPM_P2
2022/05/08 00:02:19;;;;;;;60.65;33.67;;;;;;;14.02;100.00;101393.03;8272448;28;20061;-61
2022/05/08 00:06:20;;;;;;;65.97;34.47;;;;;;;13.95;100.00;101400.03;8289301;28;20040;-61
2022/05/08 00:10:20;;;;;;;59.08;34.80;;;;;;;13.89;100.00;101400.59;8269742;28;20046;-60
2022/05/08 00:14:21;;;;;;;62.33;35.65;;;;;;;13.82;100.00;101400.28;8285610;28;20049;-61
2022/05/08 00:18:23;;;;;;;64.00;34.28;;;;;;;13.75;100.00;101407.28;8275220;28;20497;-61
2022/05/08 00:22:23;;;;;;;64.15;36.80;;;;;;;13.72;100.00;101406.69;8293729;28;20047;-60
2022/05/08 00:26:24;;;;;;;64.03;35.08;;;;;;;13.68;100.00;101407.97;8294808;28;20055;-60
2022/05/08 00:30:24;;;;;;;63.15;35.53;;;;;;;13.57;100.00;101408.06;8296107;28;20729;-60
2022/05/08 00:34:25;;;;;;;58.45;35.28;;;;;;;13.49;100.00;101406.09;8296348;28;20451;-61
2022/05/08 00:38:25;;;;;;;62.17;37.88;;;;;;;13.52;100.00;101399.50;8296415;28;20521;-61
2022/05/08 00:42:27;;;;;;;61.78;37.10;;;;;;;13.48;100.00;101409.78;8296453;28;20026;-60
2022/05/08 00:46:29;;;;;;;60.25;34.22;;;;;;;13.43;100.00;101401.19;8295831;28;20033;-60
2022/05/08 00:50:30;;;;;;;63.33;37.00;;;;;;;13.35;100.00;101403.72;8278249;28;20090;-61
2022/05/08 00:54:31;;;;;;;67.18;36.15;;;;;;;13.29;100.00;101397.97;8294244;28;20116;-61
2022/05/08 00:58:33;;;;;;;63.10;36.65;;;;;;;13.24;100.00;101400.25;8294216;28;20084;-61
2022/05/08 01:02:33;;;;;;;65.93;37.17;;;;;;;13.21;100.00;101400.53;8294989;28;20099;-61
2022/05/08 01:06:34;;;;;;;61.05;36.67;;;;;;;13.29;100.00;101397.97;8293997;28;20037;-60
2022/05/08 01:10:36;;;;;;;58.20;36.58;;;;;;;13.24;100.00;101389.38;8294781;28;20438;-60
2022/05/08 01:14:37;;;;;;;63.28;35.40;;;;;;;13.27;100.00;101394.53;8270841;28;20120;-60
2022/05/08 01:18:38;;;;;;;63.22;36.70;;;;;;;13.23;100.00;101398.50;8286978;28;20511;-60
2022/05/08 01:22:38;;;;;;;67.10;38.05;;;;;;;13.24;100.00;101401.09;8292236;28;20041;-61
2022/05/08 01:26:39;;;;;;;67.40;38.33;;;;;;;13.23;100.00;101393.06;8294389;28;20034;-60
2022/05/08 01:30:41;;;;;;;68.25;39.17;;;;;;;13.32;100.00;101397.69;8292844;28;20061;-61
2022/05/08 01:34:41;;;;;;;69.63;41.42;;;;;;;13.36;100.00;101397.28;8270848;28;20034;-60
2022/05/08 01:38:42;;;;;;;69.43;41.08;;;;;;;13.41;100.00;101400.47;8282670;28;20088;-59
2022/05/08 01:42:44;;;;;;;69.88;41.67;;;;;;;13.39;100.00;101397.00;8288333;28;20034;-60
2022/05/08 01:46:44;;;;;;;73.68;42.65;;;;;;;13.42;100.00;101406.75;8277798;28;20038;-60
2022/05/08 01:50:45;;;;;;;74.80;42.33;;;;;;;13.37;100.00;101406.31;8262620;28;20591;-60
2022/05/08 01:54:45;;;;;;;73.80;42.63;;;;;;;13.40;100.00;101409.63;8290630;28;20261;-59
2022/05/08 01:58:47;;;;;;;73.22;43.38;;;;;;;13.42;100.00;101412.19;8293018;28;20065;-60
2022/05/08 02:02:49;;;;;;;79.03;44.63;;;;;;;13.49;100.00;101410.63;8288199;28;20034;-60
2022/05/08 02:06:50;;;;;;;76.55;43.53;;;;;;;13.54;100.00;101414.66;8292049;28;20601;-60
2022/05/08 02:10:50;;;;;;;77.93;45.45;;;;;;;13.65;100.00;101411.84;8293080;28;20457;-60
2022/05/08 02:14:50;;;;;;;77.13;45.07;;;;;;;13.71;100.00;101410.44;8290082;28;20113;-60
2022/05/08 02:18:51;;;;;;;75.50;43.53;;;;;;;13.77;100.00;101418.03;8293212;28;20304;-60
2022/05/08 02:22:51;;;;;;;80.43;44.90;;;;;;;13.80;100.00;101421.34;8293506;28;20281;-60
2022/05/08 02:26:52;;;;;;;74.13;42.90;;;;;;;13.80;100.00;101417.75;8292461;28;20034;-60
2022/05/08 02:30:52;;;;;;;73.05;41.08;;;;;;;13.88;100.00;101420.63;8284016;28;20541;-60
2022/05/08 02:34:53;;;;;;;72.55;43.47;;;;;;;14.04;100.00;101423.66;8292476;28;20033;-60
2022/05/08 02:38:53;;;;;;;77.80;42.70;;;;;;;14.11;100.00;101419.38;8292470;28;20414;-61
2022/05/08 02:42:53;;;;;;;69.82;41.45;;;;;;;14.24;100.00;101430.03;8292447;28;20269;-60
2022/05/08 02:46:54;;;;;;;66.10;38.53;;;;;;;14.35;100.00;101422.59;8266881;28;20153;-62
2022/05/08 02:50:54;;;;;;;63.30;38.38;;;;;;;14.41;100.00;101429.31;8288797;28;20289;-60
2022/05/08 02:54:54;;;;;;;60.90;35.25;;;;;;;14.42;100.00;101431.03;8291971;28;20092;-60
2022/05/08 02:58:55;;;;;;;55.30;31.88;;;;;;;14.42;100.00;101439.22;8287405;28;20044;-60
2022/05/08 03:02:55;;;;;;;56.20;33.10;;;;;;;14.38;100.00;101433.19;8258504;28;20039;-60
2022/05/08 03:06:55;;;;;;;53.53;31.30;;;;;;;14.28;100.00;101435.03;8259272;28;20277;-60
2022/05/08 03:11:28;;;;;;;44.50;27.92;;;;;;;14.25;100.00;101438.03;8259731;28;20165;-60
2022/05/08 03:15:17;;;;;;;45.95;26.15;;;;;;;14.16;100.00;101432.53;8267143;28;20038;-60
2022/05/08 03:19:19;;;;;;;48.03;26.88;;;;;;;14.13;100.00;101439.13;8285465;28;20034;-60
2022/05/08 03:23:19;;;;;;;38.53;24.00;;;;;;;14.07;100.00;101442.41;8286584;28;20516;-60
2022/05/08 03:27:19;;;;;;;35.92;21.38;;;;;;;13.96;100.00;101450.69;8285928;28;20452;-59
2022/05/08 03:31:21;;;;;;;34.47;19.27;;;;;;;13.84;100.00;101443.63;8290730;28;20042;-60
2022/05/08 03:35:21;;;;;;;30.17;17.42;;;;;;;13.74;100.00;101446.34;8290772;28;20284;-60
2022/05/08 03:39:22;;;;;;;29.50;17.55;;;;;;;13.76;100.00;101449.75;8290797;28;20053;-59
2022/05/08 03:43:23;;;;;;;32.83;17.83;;;;;;;13.79;100.00;101451.38;8291312;28;20038;-60
2022/05/08 03:47:23;;;;;;;31.40;17.52;;;;;;;13.72;100.00;101455.63;8265944;28;20286;-60
2022/05/08 03:51:23;;;;;;;29.08;15.35;;;;;;;13.63;100.00;101451.00;8290356;28;20038;-60
2022/05/08 03:55:24;;;;;;;29.00;15.45;;;;;;;13.59;100.00;101455.00;8288472;28;20037;-60
2022/05/08 03:59:25;;;;;;;27.67;15.18;;;;;;;13.61;100.00;101458.44;8292707;28;20041;-60
2022/05/08 04:03:25;;;;;;;26.58;14.50;;;;;;;13.56;100.00;101456.16;8297770;28;20034;-60
2022/05/08 04:07:26;;;;;;;25.30;14.55;;;;;;;13.51;100.00;101460.28;8295919;28;20045;-60
2022/05/08 04:11:29;;;;;;;28.95;14.48;;;;;;;13.44;100.00;101467.22;8260724;28;20121;-61
2022/05/08 04:16:31;;;;;;;22.17;14.10;;;;;;;13.42;100.00;101469.25;8261006;28;20126;-61
2022/05/08 04:19:50;;;;;;;28.10;14.98;;;;;;;13.32;100.00;101465.59;8264127;28;20108;-60
2022/05/08 04:24:22;;;;;;;24.33;13.77;;;;;;;13.28;100.00;101472.31;8264365;28;20081;-61
2022/05/08 04:28:11;;;;;;;23.83;14.13;;;;;;;13.29;100.00;101472.16;8262315;28;20266;-60
2022/05/08 04:32:12;;;;;;;24.15;15.00;;;;;;;13.30;100.00;101467.59;8275914;28;20418;-60
2022/05/08 04:36:13;;;;;;;25.15;14.05;;;;;;;13.33;100.00;101481.75;8262487;28;20046;-61
2022/05/08 04:40:14;;;;;;;19.88;13.63;;;;;;;13.31;100.00;101491.03;8295745;28;20037;-60
2022/05/08 04:44:14;;;;;;;28.80;15.20;;;;;;;13.33;100.00;101491.78;8296310;28;20056;-60
2022/05/08 04:48:16;;;;;;;29.10;15.33;;;;;;;13.31;100.00;101493.75;8296013;28;20265;-60
2022/05/08 04:52:17;;;;;;;23.02;14.20;;;;;;;13.36;100.00;101486.09;8280476;28;20277;-60
2022/05/08 04:56:17;;;;;;;29.90;13.88;;;;;;;13.30;100.00;101502.91;8295118;28;20388;-60
2022/05/08 05:00:18;;;;;;;22.50;14.40;;;;;;;13.28;100.00;101502.19;8261043;28;20048;-60
2022/05/08 05:04:19;;;;;;;25.52;14.07;;;;;;;13.27;100.00;101516.75;8287706;28;20169;-60
2022/05/08 05:08:20;;;;;;;27.63;15.05;;;;;;;13.29;100.00;101515.63;8261541;28;20034;-60
2022/05/08 05:12:21;;;;;;;28.15;16.13;;;;;;;13.29;100.00;101509.31;8295308;28;20030;-60
2022/05/08 05:16:22;;;;;;;32.83;15.27;;;;;;;13.21;100.00;101514.56;8287623;28;20045;-60
2022/05/08 05:20:22;;;;;;;24.27;16.30;;;;;;;13.24;100.00;101514.31;8272664;28;20117;-60
2022/05/08 05:24:22;;;;;;;28.42;17.35;;;;;;;13.23;100.00;101524.31;8291665;28;20381;-60
2022/05/08 05:28:23;;;;;;;29.60;17.08;;;;;;;13.17;100.00;101530.25;8289325;28;20076;-61
2022/05/08 05:32:23;;;;;;;32.42;17.50;;;;;;;13.15;100.00;101531.41;8293803;28;20092;-61
2022/05/08 05:36:24;;;;;;;31.20;17.80;;;;;;;13.23;100.00;101534.28;8260100;28;20041;-61
2022/05/08 05:40:25;;;;;;;31.63;18.33;;;;;;;13.16;100.00;101538.53;8267490;28;20039;-61
2022/05/08 05:44:26;;;;;;;31.80;18.90;;;;;;;13.07;100.00;101542.91;8286604;28;20064;-61
2022/05/08 05:48:27;;;;;;;30.75;18.60;;;;;;;13.27;100.00;101541.19;8290286;28;20338;-61
2022/05/08 05:52:28;;;;;;;30.17;18.20;;;;;;;13.40;100.00;101547.28;8260164;28;20122;-61
2022/05/08 05:56:28;;;;;;;34.72;19.65;;;;;;;13.32;100.00;101549.78;8285453;28;20780;-61
2022/05/08 06:00:28;;;;;;;26.33;18.42;;;;;;;13.37;100.00;101548.41;8268295;28;20038;-61
2022/05/08 06:04:29;;;;;;;32.05;18.35;;;;;;;13.36;99.94;101556.69;8265749;28;20046;-61
2022/05/08 06:08:29;;;;;;;32.47;20.77;;;;;;;13.30;100.00;101557.22;8293075;28;20104;-61
2022/05/08 06:12:30;;;;;;;34.37;20.97;;;;;;;13.33;100.00;101567.84;8286161;28;20049;-61
2022/05/08 06:16:31;;;;;;;37.03;20.20;;;;;;;13.36;100.00;101573.00;8283155;28;20384;-61
2022/05/08 06:20:32;;;;;;;38.40;21.08;;;;;;;13.64;99.13;101566.88;8293539;28;20033;-61
2022/05/08 06:24:34;;;;;;;33.45;19.13;;;;;;;14.09;95.38;101562.78;8279927;28;20049;-60
2022/05/08 06:28:35;;;;;;;30.63;18.95;;;;;;;14.24;93.45;101566.88;8286228;28;20037;-60
2022/05/08 06:32:35;;;;;;;30.67;18.80;;;;;;;14.34;92.15;101573.22;8253184;28;20113;-60
2022/05/08 06:36:36;;;;;;;27.90;19.02;;;;;;;14.44;91.70;101574.09;8285451;28;20725;-60
2022/05/08 06:40:37;;;;;;;29.95;17.90;;;;;;;14.30;92.00;101576.34;8286660;28;20258;-60
2022/05/08 06:44:38;;;;;;;31.27;18.17;;;;;;;14.49;91.40;101582.69;8269077;28;20132;-60
2022/05/08 06:48:39;;;;;;;31.88;16.48;;;;;;;14.83;89.98;101581.34;8286792;28;20034;-60
2022/05/08 06:52:39;;;;;;;34.88;15.40;;;;;;;14.98;88.67;101590.78;8288969;28;20120;-60
2022/05/08 06:56:41;;;;;;;24.87;14.63;;;;;;;14.61;88.66;101587.00;8285651;28;20454;-60
2022/05/08 07:01:43;;;;;;;26.63;14.80;;;;;;;14.82;88.94;101586.94;8262679;28;20269;-59
2022/05/08 07:05:02;;;;;;;22.48;14.23;;;;;;;15.10;86.97;101594.25;8284703;28;20683;-60
2022/05/08 07:09:04;;;;;;;30.75;14.23;;;;;;;15.10;85.41;101595.09;8283254;28;20468;-60
2022/05/08 07:13:05;;;;;;;20.73;13.73;;;;;;;15.48;84.61;101599.69;8278216;28;20491;-60
2022/05/08 07:17:06;;;;;;;24.33;12.90;;;;;;;15.54;83.56;101594.53;8287293;28;20441;-60
2022/05/08 07:21:06;;;;;;;26.10;13.60;;;;;;;15.64;83.56;101606.25;8291255;28;20281;-60
2022/05/08 07:25:07;;;;;;;28.73;13.80;;;;;;;15.68;82.80;101606.84;8293810;28;20117;-60
2022/05/08 07:29:07;;;;;;;27.67;12.35;;;;;;;15.69;81.81;101603.09;8298392;28;20100;-60
2022/05/08 07:33:08;;;;;;;23.95;12.10;;;;;;;15.73;80.76;101604.50;8297770;28;20038;-60
2022/05/08 07:37:08;;;;;;;21.80;11.18;;;;;;;15.46;80.62;101608.00;8297842;28;20121;-60
2022/05/08 07:41:12;;;;;;;25.58;11.63;;;;;;;15.42;80.55;101617.50;8298130;28;20049;-60
2022/05/08 07:45:12;;;;;;;24.50;10.88;;;;;;;15.65;80.69;101628.94;8297793;28;20041;-60
2022/05/08 07:49:13;;;;;;;20.25;11.00;;;;;;;15.47;80.39;101622.50;8287931;28;20540;-59
2022/05/08 07:53:14;;;;;;;21.60;10.48;;;;;;;15.86;79.42;101617.84;8295549;28;20044;-60
2022/05/08 07:57:15;;;;;;;22.55;11.23;;;;;;;15.47;79.40;101619.78;8296807;28;20121;-60
2022/05/08 08:01:15;;;;;;;29.02;12.65;;;;;;;15.83;78.91;101626.31;8297572;28;20049;-59
2022/05/08 08:05:16;;;;;;;32.45;14.23;;;;;;;16.49;79.23;101633.41;8294460;28;20046;-59
2022/05/08 08:09:16;;;;;;;23.13;12.82;;;;;;;16.53;77.08;101637.59;8294714;28;20517;-59
2022/05/08 08:13:16;;;;;;;22.52;11.30;;;;;;;16.51;77.09;101634.13;8294062;28;20088;-56
2022/05/08 08:17:17;;;;;;;21.37;11.03;;;;;;;17.35;75.70;101645.47;8280180;28;20030;-57
2022/05/08 08:21:17;;;;;;;22.08;10.93;;;;;;;17.82;73.14;101645.22;8278466;28;20781;-53
2022/05/08 08:25:18;;;;;;;21.55;10.75;;;;;;;16.95;73.88;101641.47;8276506;28;20387;-59
2022/05/08 08:29:18;;;;;;;29.67;10.52;;;;;;;16.64;75.29;101645.53;8278941;28;20063;-59
2022/05/08 08:33:18;;;;;;;20.90;10.13;;;;;;;16.95;74.50;101638.75;8288155;28;20117;-59
2022/05/08 08:37:19;;;;;;;24.02;10.27;;;;;;;16.95;73.88;101638.75;8296147;28;20265;-59
2022/05/08 08:41:26;;;;;;;25.60;10.35;;;;;;;16.96;73.37;101651.41;8296728;28;20042;-60
2022/05/08 08:49:52;;;;;;;23.67;9.38;;;;;;;17.48;71.89;101653.34;8282663;28;20103;-60
2022/05/08 08:53:55;;;;;;;22.17;9.93;;;;;;;17.57;71.52;101650.50;8232016;28;20097;-60
2022/05/08 08:57:55;;;;;;;19.23;8.88;;;;;;;17.95;70.36;101656.59;8264756;28;20052;-60
2022/05/08 09:01:56;;;;;;;24.75;9.35;;;;;;;17.83;71.37;101661.47;8246396;28;20078;-59
2022/05/08 09:05:58;;;;;;;20.40;9.20;;;;;;;18.14;70.86;101656.41;8267370;28;20442;-60
2022/05/08 09:14:36;;;;;;;21.80;8.98;;;;;;;18.07;71.44;101660.78;8295582;27;20797;-60
2022/05/08 09:18:51;;;;;;;22.65;9.00;;;;;;;17.79;70.44;101657.34;8270176;28;20039;-60
2022/05/08 09:23:12;;;;;;;20.85;8.07;;;;;;;18.00;70.23;101655.13;8280637;28;20429;-60
2022/05/08 09:27:16;;;;;;;23.88;8.25;;;;;;;18.13;70.09;101666.50;8249890;28;20065;-60
2022/05/08 09:31:18;;;;;;;20.92;7.65;;;;;;;17.60;69.43;101668.47;8261586;28;20045;-60
2022/05/08 09:35:19;;;;;;;22.77;7.85;;;;;;;17.60;70.19;101657.53;8274015;28;20172;-60
2022/05/08 09:39:21;;;;;;;16.80;7.43;;;;;;;18.06;68.89;101659.94;8274258;28;20049;-60
2022/05/08 09:43:29;;;;;;;25.05;9.20;;;;;;;18.25;68.88;101658.84;8270343;28;20038;-60
2022/05/08 09:47:47;;;;;;;23.63;6.82;;;;;;;18.92;66.97;101659.72;8274508;28;20045;-60
2022/05/08 09:51:49;;;;;;;23.27;6.63;;;;;;;20.18;62.78;101654.69;8259650;28;20406;-59
2022/05/08 09:55:49;;;;;;;20.95;6.53;;;;;;;20.94;60.66;101667.66;8274512;28;20042;-59
2022/05/08 09:59:49;;;;;;;12.18;5.90;;;;;;;21.24;58.68;101654.94;8272757;28;20041;-59
2022/05/08 10:03:51;;;;;;;17.27;6.30;;;;;;;21.58;57.75;101663.63;8267300;28;20042;-59
2022/05/08 10:07:52;;;;;;;19.10;6.65;;;;;;;22.28;57.15;101656.81;8273208;28;20047;-59
2022/05/08 10:16:55;;;;;;;21.77;8.38;;;;;;;21.49;58.11;101650.97;8257767;28;20042;-60
2022/05/08 10:21:02;;;;;;;14.60;6.38;;;;;;;22.25;57.96;101640.66;8257830;28;20133;-60
2022/05/08 10:25:15;;;;;;;19.83;6.43;;;;;;;20.90;58.68;101651.69;8262134;28;20045;-60
2022/05/08 10:29:15;;;;;;;10.55;5.10;;;;;;;20.52;58.53;101652.56;8262208;28;20046;-60
2022/05/08 10:33:16;;;;;;;16.45;5.00;;;;;;;21.22;58.59;101646.00;8250372;28;20590;-60
2022/05/08 10:37:25;;;;;;;17.37;4.57;;;;;;;22.18;55.23;101644.34;8256239;28;20554;-60
2022/05/08 10:41:45;;;;;;;24.48;5.03;;;;;;;23.18;53.74;101639.81;8247561;28;20389;-60
2022/05/08 10:45:46;;;;;;;14.55;4.30;;;;;;;23.11;52.51;101627.84;8256635;28;20039;-60
2022/05/08 10:49:46;;;;;;;14.63;4.45;;;;;;;22.53;52.76;101630.72;8262843;28;20553;-60
2022/05/08 10:53:47;;;;;;;9.90;3.40;;;;;;;23.12;51.41;101632.31;8252902;28;20050;-60
2022/05/08 10:57:50;;;;;;;8.48;3.33;;;;;;;23.23;50.45;101635.63;8252945;28;20053;-60
2022/05/08 11:01:50;;;;;;;15.13;3.88;;;;;;;23.33;51.06;101622.38;8243809;28;20508;-60
2022/05/08 11:05:52;;;;;;;10.77;3.13;;;;;;;23.84;48.61;101619.25;8239814;28;20105;-60
2022/05/08 11:09:53;;;;;;;8.75;2.80;;;;;;;23.63;49.67;101621.19;8255199;28;20038;-60
2022/05/08 11:13:53;;;;;;;14.50;3.55;;;;;;;24.49;48.09;101625.25;8251188;28;20050;-60
2022/05/08 11:18:15;;;;;;;12.02;2.83;;;;;;;24.62;48.03;101607.91;8245731;28;20068;-60
2022/05/08 11:22:16;;;;;;;9.90;2.50;;;;;;;24.06;47.44;101609.88;8255554;28;20061;-60
2022/05/08 11:26:16;;;;;;;7.65;2.72;;;;;;;24.07;47.93;101603.31;8255012;28;20049;-60
2022/05/08 11:30:26;;;;;;;12.00;2.75;;;;;;;24.09;48.62;101609.47;8243087;28;20046;-60
2022/05/08 11:38:51;;;;;;;11.52;2.63;;;;;;;24.90;46.33;101595.72;8249095;28;20057;-61
2022/05/08 11:42:51;;;;;;;12.68;2.65;;;;;;;24.74;46.88;101603.53;8249867;28;20062;-60
2022/05/08 11:46:55;;;;;;;8.90;2.70;;;;;;;24.51;46.52;101594.63;8241597;28;20034;-60
2022/05/08 11:50:56;;;;;;;7.38;2.72;;;;;;;25.04;46.51;101591.91;8244622;28;20051;-60
2022/05/08 11:54:59;;;;;;;10.10;2.60;;;;;;;24.04;47.16;101597.34;8250387;28;20072;-60
2022/05/08 11:59:03;;;;;;;11.23;2.33;;;;;;;22.94;48.82;101593.25;8242104;28;20498;-60
2022/05/08 12:03:04;;;;;;;7.28;2.50;;;;;;;21.19;52.26;101585.84;8242800;28;20055;-60
2022/05/08 12:07:10;;;;;;;8.55;1.95;;;;;;;20.80;53.33;101591.41;8243773;28;20747;-60
2022/05/08 12:11:33;;;;;;;6.15;2.00;;;;;;;20.16;53.80;101585.34;8249168;28;20046;-60
2022/05/08 12:15:34;;;;;;;11.05;3.05;;;;;;;19.98;54.59;101570.97;8255271;28;20038;-60
2022/05/08 12:19:35;;;;;;;9.65;2.50;;;;;;;20.19;55.69;101574.03;8250581;28;20125;-60
2022/05/08 12:23:50;;;;;;;7.15;2.10;;;;;;;20.09;55.23;101567.81;8248680;28;20533;-60
2022/05/08 12:27:51;;;;;;;7.60;2.50;;;;;;;20.09;54.96;101567.81;8239133;28;20062;-60
2022/05/08 12:31:51;;;;;;;8.85;2.60;;;;;;;20.00;56.38;101558.75;8239831;28;20114;-60
2022/05/08 12:35:52;;;;;;;6.80;2.38;;;;;;;20.21;54.69;101563.69;8240989;28;20043;-60
2022/05/08 12:39:52;;;;;;;9.00;2.72;;;;;;;20.08;54.13;101557.88;8235938;28;20725;-60
2022/05/08 12:43:52;;;;;;;8.45;2.88;;;;;;;20.02;55.07;101566.81;8250025;28;20494;-60
2022/05/08 12:47:53;;;;;;;5.30;2.27;;;;;;;19.88;55.26;101556.59;8242928;28;20064;-60
2022/05/08 12:51:53;;;;;;;12.18;2.78;;;;;;;19.70;55.44;101561.41;8248895;28;20277;-60
2022/05/08 12:55:54;;;;;;;9.00;2.70;;;;;;;19.78;54.65;101554.03;8238252;28;20375;-60
2022/05/08 12:59:54;;;;;;;11.13;2.67;;;;;;;19.93;54.24;101556.88;8249674;28;20046;-60
2022/05/08 13:03:55;;;;;;;10.35;2.38;;;;;;;19.94;53.38;101544.91;8253313;28;20046;-60
2022/05/08 13:07:55;;;;;;;9.25;2.08;;;;;;;19.98;53.63;101543.50;8250566;28;20061;-60
2022/05/08 13:11:57;;;;;;;7.00;2.43;;;;;;;20.04;53.80;101540.06;8249411;28;20081;-60
2022/05/08 13:15:58;;;;;;;6.35;2.13;;;;;;;19.91;52.37;101539.75;8256863;28;20261;-61
2022/05/08 13:20:01;;;;;;;10.07;2.15;;;;;;;19.70;52.91;101539.47;8255235;28;20053;-61
2022/05/08 13:24:02;;;;;;;7.00;1.88;;;;;;;19.90;52.21;101529.78;8239755;28;20055;-60
2022/05/08 13:28:02;;;;;;;3.83;1.30;;;;;;;20.10;51.97;101537.44;8269628;28;20046;-60
2022/05/08 13:32:03;;;;;;;7.47;2.20;;;;;;;19.92;52.17;101534.09;8251097;28;20046;-61
2022/05/08 13:36:04;;;;;;;7.90;1.90;;;;;;;19.65;52.58;101525.41;8238766;28;20606;-60
2022/05/08 13:40:05;;;;;;;5.88;1.90;;;;;;;19.87;52.98;101527.41;8246599;28;20034;-61
2022/05/08 13:44:05;;;;;;;7.65;1.75;;;;;;;20.04;52.94;101520.84;8247830;28;20068;-61
2022/05/08 13:48:06;;;;;;;11.93;1.70;;;;;;;19.93;52.54;101518.47;8249876;28;20057;-60
2022/05/08 13:52:06;;;;;;;5.32;1.25;;;;;;;19.90;52.11;101511.44;8248502;28;20371;-60
2022/05/08 13:56:08;;;;;;;4.05;1.40;;;;;;;20.15;50.91;101534.19;8255135;28;20026;-61
2022/05/08 14:00:14;;;;;;;5.18;1.10;;;;;;;19.85;50.51;101515.75;8258825;28;20532;-61
2022/05/08 14:04:14;;;;;;;4.43;1.60;;;;;;;20.11;51.30;101521.81;8253941;28;20521;-61
2022/05/08 14:08:16;;;;;;;5.30;1.30;;;;;;;20.08;52.11;101512.06;8248334;28;20429;-61
2022/05/08 14:12:16;;;;;;;5.63;1.88;;;;;;;20.05;52.87;101506.06;8230201;28;20054;-61
2022/05/08 14:16:18;;;;;;;5.75;1.80;;;;;;;20.07;52.36;101504.00;8249533;28;20331;-61
2022/05/08 14:20:18;;;;;;;6.55;1.95;;;;;;;20.09;52.96;101508.28;8232966;28;20074;-61
2022/05/08 14:24:19;;;;;;;7.97;1.90;;;;;;;20.26;53.88;101498.97;8259057;28;20054;-61
2022/05/08 14:28:19;;;;;;;6.80;2.10;;;;;;;20.05;52.14;101501.44;8248708;28;20038;-61
2022/05/08 14:36:40;;;;;;;14.88;1.83;;;;;;;19.99;52.83;101493.03;8252053;28;20290;-61
2022/05/08 14:40:41;;;;;;;6.28;1.75;;;;;;;20.29;52.86;101495.00;8248712;28;20050;-61
2022/05/08 14:44:41;;;;;;;7.38;2.08;;;;;;;20.34;52.17;101489.84;8251207;28;20044;-60
2022/05/08 14:48:41;;;;;;;3.83;1.43;;;;;;;20.13;52.43;101481.34;8246381;28;20038;-61
2022/05/08 14:52:42;;;;;;;7.03;2.10;;;;;;;20.04;52.31;101479.66;8244946;28;20749;-61
2022/05/08 14:56:43;;;;;;;5.50;1.40;;;;;;;20.21;52.17;101473.06;8256711;28;20130;-61
2022/05/08 15:00:45;;;;;;;5.55;1.42;;;;;;;20.29;52.13;101475.78;8258012;28;20313;-61
2022/05/08 15:04:47;;;;;;;5.75;1.38;;;;;;;20.56;51.74;101475.28;8272347;28;20256;-61
2022/05/08 15:08:48;;;;;;;5.88;1.20;;;;;;;20.30;50.99;101474.72;8249487;28;20399;-60
2022/05/08 15:12:50;;;;;;;8.20;2.15;;;;;;;20.27;50.73;101472.34;8247203;28;20050;-61
2022/05/08 15:16:51;;;;;;;3.25;1.30;;;;;;;20.39;50.99;101476.41;8248923;28;20097;-61
2022/05/08 15:20:54;;;;;;;5.15;1.40;;;;;;;20.07;51.93;101474.63;8249247;28;20034;-59
2022/05/08 15:24:55;;;;;;;8.70;2.03;;;;;;;20.08;51.25;101467.25;8255062;28;20046;-59
2022/05/08 15:28:55;;;;;;;5.15;1.30;;;;;;;20.29;51.00;101459.28;8264696;28;20065;-60
2022/05/08 15:32:56;;;;;;;8.13;1.40;;;;;;;20.26;51.21;101455.03;8251240;28;20053;-60
2022/05/08 15:36:58;;;;;;;5.13;1.35;;;;;;;20.19;51.03;101455.94;8244236;28;20065;-61
2022/05/08 15:41:01;;;;;;;6.72;1.52;;;;;;;20.25;51.19;101463.44;8254152;28;20120;-59
2022/05/08 15:45:02;;;;;;;7.55;1.48;;;;;;;20.16;50.55;101462.59;8252248;28;20117;-60
2022/05/08 15:49:03;;;;;;;5.80;1.13;;;;;;;20.21;50.58;101467.56;8255854;28;20058;-60
2022/05/08 15:53:03;;;;;;;5.55;1.30;;;;;;;19.95;51.28;101462.38;8250782;28;20050;-60
2022/05/08 15:57:04;;;;;;;4.87;1.30;;;;;;;19.78;51.59;101454.34;8251562;28;20077;-60
2022/05/08 16:01:06;;;;;;;14.70;2.15;;;;;;;20.11;50.93;101458.66;8247788;28;20754;-60
2022/05/08 16:05:08;;;;;;;3.38;1.17;;;;;;;20.04;50.49;101450.31;8248629;28;20096;-60
2022/05/08 16:09:08;;;;;;;5.90;1.45;;;;;;;20.10;50.23;101459.72;8255074;28;20498;-59
2022/05/08 16:23:21;;;;;;;8.27;1.50;;;;;;;19.93;49.71;101455.31;8238101;28;20051;-59
2022/05/08 16:26:10;;;;;;;4.22;0.93;;;;;;;20.05;50.08;101448.41;8240315;28;20495;-60
2022/05/08 16:30:11;;;;;;;4.93;1.10;;;;;;;20.13;49.26;101451.16;8249672;28;20458;-59
2022/05/08 16:34:11;;;;;;;4.13;1.20;;;;;;;19.94;49.68;101448.81;8243237;28;20046;-59
2022/05/08 16:38:12;;;;;;;3.43;0.80;;;;;;;19.86;49.74;101446.09;8245149;28;20445;-59
2022/05/08 16:42:12;;;;;;;3.50;1.00;;;;;;;20.02;49.89;101452.38;8241858;28;20293;-59
2022/05/08 16:46:12;;;;;;;3.13;1.30;;;;;;;19.87;49.49;101453.28;8249841;28;20038;-60
2022/05/08 16:50:13;;;;;;;4.43;0.90;;;;;;;19.91;49.70;101443.69;8250003;28;20273;-59
2022/05/08 16:54:13;;;;;;;2.80;1.00;;;;;;;19.89;50.05;101435.63;8249065;28;20328;-60
2022/05/08 16:58:14;;;;;;;4.70;0.90;;;;;;;19.83;50.17;101441.81;8243288;28;20096;-59
2022/05/08 17:02:15;;;;;;;4.97;0.80;;;;;;;19.48;50.33;101442.28;8249465;28;20070;-60
2022/05/08 17:06:15;;;;;;;3.60;0.90;;;;;;;19.68;50.26;101434.50;8248783;28;20049;-59
2022/05/08 17:10:16;;;;;;;4.80;1.07;;;;;;;19.76;50.85;101434.47;8248006;28;20046;-60
2022/05/08 17:14:17;;;;;;;4.88;1.05;;;;;;;19.65;50.90;101438.47;8245398;28;21208;-59
2022/05/08 17:18:18;;;;;;;4.85;0.80;;;;;;;19.49;50.92;101433.88;8250680;28;20038;-59
2022/05/08 17:22:18;;;;;;;3.50;1.00;;;;;;;19.40;51.36;101436.81;8241666;28;20050;-60
2022/05/08 17:26:19;;;;;;;4.68;1.20;;;;;;;19.44;51.76;101435.44;8241686;28;20755;-60
2022/05/08 17:30:20;;;;;;;7.90;1.13;;;;;;;19.47;51.56;101435.09;8233231;28;20112;-60
2022/05/08 17:34:20;;;;;;;5.65;1.25;;;;;;;19.44;52.35;101435.44;8231924;28;20573;-60
2022/05/08 17:38:20;;;;;;;4.25;1.30;;;;;;;19.48;52.61;101441.44;8250170;28;20465;-60
2022/05/08 17:42:21;;;;;;;2.70;1.13;;;;;;;19.36;53.22;101439.03;8243909;28;20121;-60
2022/05/08 17:46:21;;;;;;;2.97;1.27;;;;;;;19.33;53.47;101433.91;8251518;28;20064;-60
2022/05/08 17:50:23;;;;;;;6.73;1.03;;;;;;;19.23;54.06;101444.19;8241378;28;20042;-60
2022/05/08 17:54:24;;;;;;;4.50;1.27;;;;;;;19.17;54.14;101454.97;8240898;28;20754;-60
2022/05/08 17:58:25;;;;;;;5.75;1.48;;;;;;;19.00;54.59;101448.66;8238906;28;20042;-60
2022/05/08 18:06:46;;;;;;;3.55;1.33;;;;;;;18.96;54.91;101454.66;8254504;28;20049;-60
2022/05/08 18:10:48;;;;;;;3.35;1.13;;;;;;;18.93;54.56;101452.25;8244807;28;20102;-60
2022/05/08 18:14:48;;;;;;;4.65;1.20;;;;;;;18.86;55.23;101463.06;8254114;28;20410;-59
2022/05/08 18:18:48;;;;;;;5.55;1.52;;;;;;;18.77;55.22;101453.13;8253216;28;20042;-60
2022/05/08 18:22:49;;;;;;;7.32;1.42;;;;;;;18.73;55.20;101462.69;8244422;28;20380;-60
2022/05/08 18:26:49;;;;;;;6.55;1.30;;;;;;;18.64;55.31;101466.47;8240239;28;20046;-60
2022/05/08 18:30:51;;;;;;;4.40;1.00;;;;;;;18.57;55.32;101462.69;8235613;28;20054;-60
2022/05/08 18:34:52;;;;;;;5.60;1.48;;;;;;;18.52;55.77;101465.09;8256319;28;20088;-59
2022/05/08 18:38:55;;;;;;;5.45;1.20;;;;;;;18.43;56.30;101473.44;8253956;28;20034;-59
2022/05/08 18:42:57;;;;;;;6.00;1.15;;;;;;;18.30;56.77;101476.63;8258186;28;20478;-59
2022/05/08 18:46:58;;;;;;;5.80;1.40;;;;;;;18.24;57.10;101477.28;8259244;28;20031;-59
2022/05/08 18:50:58;;;;;;;5.93;1.48;;;;;;;18.11;57.45;101485.13;8248187;28;20491;-59
2022/05/08 18:54:59;;;;;;;7.68;1.85;;;;;;;18.01;57.89;101478.06;8240945;28;20675;-59
2022/05/08 18:58:59;;;;;;;6.70;1.70;;;;;;;17.94;57.94;101486.09;8256961;28;20042;-59
2022/05/08 19:03:00;;;;;;;4.38;1.35;;;;;;;17.79;58.76;101487.72;8250699;28;20122;-60